createdAt,value
2023-03-06T00:01:34.415Z,5.22
2023-03-06T00:04:01.029Z,5.70
2023-03-06T00:06:27.655Z,5.20
2023-03-06T00:08:54.679Z,5.60
2023-03-06T00:11:21.257Z,5.72
2023-03-06T00:13:47.811Z,5.55
2023-03-06T00:16:14.980Z,5.45
2023-03-06T00:18:44.008Z,5.70
2023-03-06T00:21:10.493Z,5.50
2023-03-06T00:23:37.113Z,4.85
2023-03-06T00:26:07.669Z,5.65
2023-03-06T00:28:35.407Z,5.10
2023-03-06T00:31:02.207Z,5.05
2023-03-06T00:33:28.824Z,5.10
2023-03-06T00:35:55.294Z,5.60
2023-03-06T00:38:21.810Z,5.38
2023-03-06T00:40:49.229Z,5.70
2023-03-06T00:43:15.945Z,5.63
2023-03-06T00:45:43.027Z,5.57
2023-03-06T00:48:10.860Z,6.22
2023-03-06T00:50:37.572Z,6.32
2023-03-06T00:53:04.128Z,6.15
2023-03-06T00:55:31.124Z,5.35
2023-03-06T00:57:57.682Z,6.38
2023-03-06T01:00:26.359Z,6.00
2023-03-06T01:02:53.691Z,6.13
2023-03-06T01:05:22.093Z,6.13
2023-03-06T01:07:48.558Z,5.80
2023-03-06T01:10:15.187Z,6.50
2023-03-06T01:12:41.835Z,5.35
2023-03-06T01:15:09.136Z,5.90
2023-03-06T01:17:36.008Z,6.57
2023-03-06T01:20:03.155Z,5.78
2023-03-06T01:22:30.409Z,6.40
2023-03-06T01:24:57.002Z,6.32
2023-03-06T01:27:23.688Z,6.38
2023-03-06T01:29:50.224Z,6.43
2023-03-06T01:32:16.755Z,6.47
2023-03-06T01:34:43.433Z,6.55
2023-03-06T01:37:10.168Z,6.85
2023-03-06T01:39:36.661Z,6.78
2023-03-06T01:42:03.354Z,6.28
2023-03-06T01:44:30.370Z,6.97
2023-03-06T01:46:56.856Z,7.03
2023-03-06T01:49:31.102Z,6.65
2023-03-06T01:52:02.132Z,7.20
2023-03-06T01:54:31.903Z,7.38
2023-03-06T01:57:09.342Z,6.88
2023-03-06T01:59:36.202Z,7.15
2023-03-06T02:02:03.861Z,7.15
2023-03-06T02:04:30.772Z,7.05
2023-03-06T02:06:59.334Z,7.13
2023-03-06T02:09:30.096Z,7.03
2023-03-06T02:11:56.632Z,6.78
2023-03-06T02:14:23.480Z,7.40
2023-03-06T02:16:50.661Z,7.18
2023-03-06T02:19:26.660Z,7.35
2023-03-06T02:21:53.190Z,7.18
2023-03-06T02:24:38.378Z,7.68
2023-03-06T02:27:06.901Z,7.85
2023-03-06T02:29:33.665Z,7.40
2023-03-06T02:32:02.844Z,7.35
2023-03-06T02:34:29.391Z,7.28
2023-03-06T02:37:00.808Z,7.18
2023-03-06T02:39:30.228Z,7.10
2023-03-06T02:44:24.467Z,6.75
2023-03-06T02:46:51.261Z,7.35
2023-03-06T02:49:18.052Z,6.88
2023-03-06T02:51:44.700Z,6.53
2023-03-06T02:54:11.944Z,7.45
2023-03-06T02:56:38.629Z,7.38
2023-03-06T02:59:10.793Z,7.47
2023-03-06T03:01:38.092Z,8.20
2023-03-06T03:04:04.822Z,7.78
2023-03-06T03:06:32.409Z,7.82
2023-03-06T03:08:59.230Z,7.72
2023-03-06T03:11:25.854Z,7.65
2023-03-06T03:13:53.192Z,7.70
2023-03-06T03:16:23.806Z,7.30
2023-03-06T03:18:51.166Z,7.50
2023-03-06T03:21:20.425Z,7.68
2023-03-06T03:23:48.223Z,7.53
2023-03-06T03:26:17.837Z,8.07
2023-03-06T03:28:50.194Z,7.55
2023-03-06T03:31:19.560Z,7.88
2023-03-06T03:33:46.512Z,7.68
2023-03-06T03:36:13.669Z,8.23
2023-03-06T03:38:44.349Z,8.38
2023-03-06T03:41:11.669Z,7.72
2023-03-06T03:43:38.365Z,6.93
2023-03-06T03:46:06.059Z,7.38
2023-03-06T03:48:33.443Z,8.07
2023-03-06T03:51:11.826Z,8.02
2023-03-06T03:53:44.197Z,7.22
2023-03-06T03:56:13.242Z,6.88
2023-03-06T03:58:48.596Z,7.10
2023-03-06T04:01:15.914Z,7.63
2023-03-06T04:03:42.706Z,6.95
2023-03-06T04:06:10.649Z,7.53
2023-03-06T04:08:38.166Z,7.88
2023-03-06T04:11:05.241Z,8.50
2023-03-06T04:13:32.392Z,7.72
2023-03-06T04:15:59.757Z,8.10
2023-03-06T04:18:28.680Z,7.80
2023-03-06T04:20:59.427Z,8.75
2023-03-06T04:23:27.885Z,7.88
2023-03-06T04:25:54.903Z,8.32
2023-03-06T04:28:22.442Z,8.35
2023-03-06T04:30:49.406Z,7.88
2023-03-06T04:33:17.456Z,8.38
2023-03-06T04:35:44.585Z,9.10
2023-03-06T04:38:17.562Z,8.63
2023-03-06T04:40:45.618Z,8.55
2023-03-06T04:43:12.533Z,7.85
2023-03-06T04:45:39.170Z,8.93
2023-03-06T04:48:06.254Z,8.90
2023-03-06T04:50:33.315Z,9.45
2023-03-06T04:53:01.312Z,9.00
2023-03-06T04:55:28.364Z,9.18
2023-03-06T04:57:55.308Z,8.63
2023-03-06T05:00:24.661Z,9.57
2023-03-06T05:05:18.631Z,9.30
2023-03-06T05:07:45.215Z,8.82
2023-03-06T05:10:13.785Z,9.48
2023-03-06T05:12:40.380Z,9.63
2023-03-06T05:15:08.189Z,10.07
2023-03-06T05:17:34.762Z,10.00
2023-03-06T05:20:01.415Z,9.63
2023-03-06T05:22:28.139Z,9.13
2023-03-06T05:24:54.722Z,10.07
2023-03-06T05:27:21.586Z,9.65
2023-03-06T05:29:48.445Z,10.27
2023-03-06T05:32:16.404Z,10.18
2023-03-06T05:34:43.334Z,9.32
2023-03-06T05:37:10.073Z,10.50
2023-03-06T05:39:37.449Z,9.32
2023-03-06T05:42:04.401Z,9.63
2023-03-06T05:44:33.320Z,9.63
2023-03-06T05:47:00.476Z,9.73
2023-03-06T05:49:31.916Z,9.20
2023-03-06T05:52:00.852Z,9.40
2023-03-06T05:54:27.438Z,9.48
2023-03-06T05:56:54.084Z,9.88
2023-03-06T05:59:20.757Z,10.10
2023-03-06T06:01:47.605Z,9.57
2023-03-06T06:04:14.371Z,9.50
2023-03-06T06:06:41.043Z,10.23
2023-03-06T06:09:07.880Z,9.25
2023-03-06T06:11:34.568Z,9.70
2023-03-06T06:14:01.407Z,10.52
2023-03-06T06:16:28.190Z,10.48
2023-03-06T06:18:54.868Z,10.73
2023-03-06T06:21:21.457Z,10.38
2023-03-06T06:23:48.229Z,11.15
2023-03-06T06:26:14.978Z,10.65
2023-03-06T06:28:41.841Z,11.60
2023-03-06T06:31:10.450Z,10.65
2023-03-06T06:33:37.063Z,10.35
2023-03-06T06:36:03.839Z,10.95
2023-03-06T06:38:30.435Z,10.88
2023-03-06T06:41:27.203Z,11.27
2023-03-06T06:43:43.495Z,10.52
2023-03-06T06:46:38.842Z,10.18
2023-03-06T06:48:56.356Z,10.82
2023-03-06T06:51:23.145Z,11.55
2023-03-06T06:53:52.636Z,10.65
2023-03-06T06:56:19.180Z,11.23
2023-03-06T06:58:45.737Z,10.95
2023-03-06T07:01:13.337Z,11.55
2023-03-06T07:03:40.606Z,11.50
2023-03-06T07:06:07.366Z,11.27
2023-03-06T07:08:34.476Z,11.90
2023-03-06T07:11:09.890Z,11.25
2023-03-06T07:13:36.445Z,11.15
2023-03-06T07:16:03.064Z,11.95
2023-03-06T07:18:30.130Z,11.60
2023-03-06T07:20:57.114Z,11.88
2023-03-06T07:23:26.403Z,11.45
2023-03-06T07:25:56.873Z,10.80
2023-03-06T07:28:23.669Z,11.70
2023-03-06T07:30:50.257Z,11.32
2023-03-06T07:33:16.913Z,11.73
2023-03-06T07:35:44.216Z,10.85
2023-03-06T07:38:10.954Z,11.55
2023-03-06T07:40:38.746Z,12.35
2023-03-06T07:43:18.775Z,11.98
2023-03-06T07:45:59.616Z,10.90
2023-03-06T07:48:27.357Z,11.43
2023-03-06T07:51:02.200Z,11.20
2023-03-06T07:53:29.675Z,10.75
2023-03-06T07:55:56.411Z,11.90
2023-03-06T07:58:23.487Z,12.40
2023-03-06T08:00:49.926Z,11.77
2023-03-06T08:03:16.481Z,13.70
2023-03-06T08:05:44.151Z,14.35
2023-03-06T08:08:11.236Z,15.32
2023-03-06T08:10:37.778Z,17.40
2023-03-06T08:13:04.717Z,17.08
2023-03-06T08:15:31.195Z,17.23
2023-03-06T08:17:57.613Z,15.65
2023-03-06T08:20:24.065Z,15.52
2023-03-06T08:22:50.472Z,15.18
2023-03-06T08:25:16.995Z,13.75
2023-03-06T08:27:43.713Z,13.90
2023-03-06T08:30:10.573Z,13.15
2023-03-06T08:32:37.557Z,12.98
2023-03-06T08:35:04.831Z,14.30
2023-03-06T08:37:31.321Z,13.27
2023-03-06T08:39:57.773Z,12.30
2023-03-06T08:42:24.267Z,12.85
2023-03-06T08:44:50.736Z,13.20
2023-03-06T08:47:17.157Z,13.00
2023-03-06T08:49:43.609Z,13.20
2023-03-06T08:52:11.026Z,11.77
2023-03-06T08:54:38.562Z,12.57
2023-03-06T08:57:05.018Z,12.82
2023-03-06T08:59:31.405Z,12.55
2023-03-06T09:01:57.909Z,13.18
2023-03-06T09:04:24.396Z,13.20
2023-03-06T09:06:50.974Z,13.50
2023-03-06T09:09:17.644Z,13.65
2023-03-06T09:11:44.058Z,12.30
2023-03-06T09:14:10.564Z,12.38
2023-03-06T09:16:36.986Z,13.00
2023-03-06T09:19:03.435Z,12.82
2023-03-06T09:21:29.856Z,12.68
2023-03-06T09:23:56.348Z,12.35
2023-03-06T09:26:28.032Z,11.93
2023-03-06T09:28:59.509Z,12.98
2023-03-06T09:31:26.028Z,12.57
2023-03-06T09:33:52.456Z,12.65
2023-03-06T09:36:20.819Z,12.73
2023-03-06T09:38:49.618Z,11.97
2023-03-06T09:41:33.290Z,12.10
2023-03-06T09:44:20.560Z,11.90
2023-03-06T09:47:18.978Z,12.88
2023-03-06T09:50:00.898Z,12.45
2023-03-06T09:52:45.901Z,12.38
2023-03-06T09:55:19.308Z,12.20
2023-03-06T09:58:07.501Z,12.52
2023-03-06T10:00:38.465Z,12.13
2023-03-06T10:03:16.088Z,13.55
2023-03-06T10:05:47.038Z,12.30
2023-03-06T10:08:30.292Z,12.25
2023-03-06T10:11:03.496Z,12.13
2023-03-06T10:13:45.961Z,12.23
2023-03-06T10:16:29.623Z,12.25
2023-03-06T10:19:00.470Z,13.23
2023-03-06T10:22:02.968Z,12.82
2023-03-06T10:24:43.228Z,12.40
2023-03-06T10:27:39.808Z,12.98
2023-03-06T10:30:20.968Z,11.93
2023-03-06T10:33:02.111Z,12.65
2023-03-06T10:35:32.026Z,11.35
2023-03-06T10:38:21.506Z,12.07
2023-03-06T10:40:55.741Z,13.13
2023-03-06T10:43:22.680Z,12.27
2023-03-06T10:45:51.627Z,12.05
2023-03-06T10:48:27.105Z,12.57
2023-03-06T10:51:21.090Z,11.75
2023-03-06T10:53:55.126Z,11.77
2023-03-06T10:56:28.747Z,12.18
2023-03-06T10:59:18.186Z,12.63
2023-03-06T11:01:50.087Z,12.75
2023-03-06T11:04:24.015Z,13.07
2023-03-06T11:07:15.941Z,12.30
2023-03-06T11:09:44.387Z,12.60
2023-03-06T11:12:37.697Z,11.27
2023-03-06T11:15:07.480Z,11.65
2023-03-06T11:17:37.249Z,12.05
2023-03-06T11:20:20.691Z,10.80
2023-03-06T11:22:51.240Z,11.38
2023-03-06T11:25:19.149Z,11.65
2023-03-06T11:27:47.272Z,11.88
2023-03-06T11:30:23.831Z,11.60
2023-03-06T11:33:02.922Z,11.85
2023-03-06T11:35:47.273Z,11.13
2023-03-06T11:38:19.190Z,11.50
2023-03-06T11:40:58.683Z,11.38
2023-03-06T11:43:29.956Z,12.38
2023-03-06T11:46:00.588Z,11.52
2023-03-06T11:48:32.409Z,12.18
2023-03-06T11:51:06.518Z,12.20
2023-03-06T11:53:35.289Z,12.52
2023-03-06T11:56:23.399Z,11.48
2023-03-06T11:59:20.840Z,11.52
2023-03-06T12:01:51.646Z,11.77
2023-03-06T12:04:36.711Z,11.38
2023-03-06T12:07:07.607Z,11.95
2023-03-06T12:09:51.961Z,11.65
2023-03-06T12:12:32.855Z,11.68
2023-03-06T12:15:08.667Z,11.43
2023-03-06T12:17:44.672Z,11.82
2023-03-06T12:20:23.367Z,11.40
2023-03-06T12:23:02.401Z,12.48
2023-03-06T12:25:42.071Z,11.70
2023-03-06T12:28:42.383Z,10.40
2023-03-06T12:31:15.679Z,11.75
2023-03-06T12:34:09.844Z,10.95
2023-03-06T12:36:51.736Z,11.23
2023-03-06T12:39:48.153Z,11.43
2023-03-06T12:42:40.731Z,11.30
2023-03-06T12:45:34.954Z,11.35
2023-03-06T12:48:02.050Z,11.32
2023-03-06T12:50:33.488Z,10.65
2023-03-06T12:53:05.796Z,10.35
2023-03-06T12:55:46.610Z,10.23
2023-03-06T12:58:28.114Z,10.52
2023-03-06T13:01:09.630Z,9.90
2023-03-06T13:04:02.710Z,10.68
2023-03-06T13:06:39.246Z,9.35
2023-03-06T13:09:18.940Z,9.52
2023-03-06T13:12:17.260Z,9.55
2023-03-06T13:14:53.862Z,10.48
2023-03-06T13:17:20.850Z,9.52
2023-03-06T13:19:47.952Z,9.65
2023-03-06T13:22:26.652Z,9.40
2023-03-06T13:25:33.322Z,9.07
2023-03-06T13:28:03.321Z,9.55
2023-03-06T13:30:38.642Z,8.63
2023-03-06T13:33:26.486Z,8.30
2023-03-06T13:35:54.009Z,9.15
2023-03-06T13:38:37.093Z,9.45
2023-03-06T13:41:21.910Z,9.95
2023-03-06T13:43:53.157Z,9.43
2023-03-06T13:46:27.274Z,9.52
2023-03-06T13:49:15.503Z,10.15
2023-03-06T13:51:47.493Z,9.57
2023-03-06T13:54:25.388Z,10.32
2023-03-06T13:57:13.795Z,9.80
2023-03-06T14:00:10.349Z,10.45
2023-03-06T14:02:48.956Z,9.38
2023-03-06T14:05:17.142Z,10.23
2023-03-06T14:07:48.024Z,8.90
2023-03-06T14:10:14.390Z,9.10
2023-03-06T14:12:44.354Z,10.07
2023-03-06T14:15:25.410Z,9.65
2023-03-06T14:18:01.747Z,8.75
2023-03-06T14:20:44.209Z,7.95
2023-03-06T14:23:51.284Z,7.90
2023-03-06T14:26:20.252Z,7.90
2023-03-06T14:28:56.461Z,7.68
2023-03-06T14:31:24.954Z,7.80
2023-03-06T14:33:59.902Z,7.78
2023-03-06T14:36:32.391Z,7.82
2023-03-06T14:39:04.126Z,7.38
2023-03-06T14:41:32.693Z,7.30
2023-03-06T14:44:16.572Z,7.40
2023-03-06T14:46:47.288Z,7.07
2023-03-06T14:49:15.300Z,6.40
2023-03-06T14:51:44.342Z,7.40
2023-03-06T14:54:15.786Z,7.30
2023-03-06T14:56:44.009Z,7.18
2023-03-06T14:59:12.471Z,7.57
2023-03-06T15:01:42.053Z,7.17
2023-03-06T15:04:23.379Z,6.70
2023-03-06T15:06:49.997Z,7.05
2023-03-06T15:09:24.368Z,6.60
2023-03-06T15:12:02.757Z,7.18
2023-03-06T15:14:32.143Z,6.83
2023-03-06T15:19:47.453Z,7.53
2023-03-06T15:22:30.712Z,6.60
2023-03-06T15:25:22.784Z,6.63
2023-03-06T15:27:51.557Z,6.10
2023-03-06T15:30:30.233Z,5.57
2023-03-06T15:33:17.943Z,6.18
2023-03-06T15:36:01.616Z,5.22
2023-03-06T15:38:40.794Z,4.80
2023-03-06T15:41:21.058Z,4.72
2023-03-06T15:43:48.623Z,4.60
2023-03-06T15:46:15.107Z,8.82
2023-03-06T15:48:54.930Z,11.50
2023-03-06T15:51:21.379Z,5.30
2023-03-06T15:53:47.960Z,7.57
2023-03-06T15:56:14.389Z,7.18
2023-03-06T15:58:41.342Z,7.80
2023-03-06T16:01:13.177Z,7.85
2023-03-06T16:03:39.627Z,8.57
2023-03-06T16:06:06.046Z,9.20
2023-03-06T16:08:32.475Z,8.90
2023-03-06T16:10:59.111Z,8.80
2023-03-06T16:13:27.258Z,8.43
2023-03-06T16:15:54.336Z,9.13
2023-03-06T16:18:20.828Z,9.05
2023-03-06T16:20:47.257Z,8.75
2023-03-06T16:23:15.252Z,9.48
2023-03-06T16:25:43.604Z,9.25
2023-03-06T16:28:12.184Z,9.67
2023-03-06T16:30:38.839Z,8.82
2023-03-06T16:33:05.649Z,8.73
2023-03-06T16:35:32.072Z,9.38
2023-03-06T16:37:59.850Z,8.68
2023-03-06T16:40:32.422Z,8.73
2023-03-06T16:42:59.056Z,9.13
2023-03-06T16:45:25.517Z,9.20
2023-03-06T16:47:52.151Z,10.07
2023-03-06T16:50:40.535Z,10.18
2023-03-06T16:53:07.693Z,9.57
2023-03-06T16:55:34.688Z,10.60
2023-03-06T16:58:01.128Z,10.07
2023-03-06T17:00:32.909Z,11.15
2023-03-06T17:03:00.859Z,10.82
2023-03-06T17:05:28.660Z,13.00
2023-03-06T17:07:55.773Z,13.30
2023-03-06T17:10:26.140Z,13.65
2023-03-06T17:12:52.986Z,13.63
2023-03-06T17:15:19.772Z,14.27
2023-03-06T17:17:46.327Z,13.68
2023-03-06T17:20:13.505Z,13.45
2023-03-06T17:22:41.408Z,14.68
2023-03-06T17:25:08.996Z,15.48
2023-03-06T17:27:36.354Z,14.88
2023-03-06T17:30:04.258Z,14.70
2023-03-06T17:32:32.158Z,14.13
2023-03-06T17:34:58.825Z,15.23
2023-03-06T17:38:01.434Z,14.98
2023-03-06T17:40:29.698Z,14.05
2023-03-06T17:42:56.480Z,14.73
2023-03-06T17:45:22.970Z,14.75
2023-03-06T17:47:53.378Z,14.45
2023-03-06T17:50:20.046Z,14.80
2023-03-06T17:52:46.970Z,14.18
2023-03-06T17:55:13.848Z,14.35
2023-03-06T17:57:40.418Z,15.05
2023-03-06T18:00:07.738Z,14.63
2023-03-06T18:02:38.800Z,14.73
2023-03-06T18:05:06.209Z,14.55
2023-03-06T18:07:32.735Z,14.65
2023-03-06T18:09:59.278Z,14.18
2023-03-06T18:12:25.963Z,14.20
2023-03-06T18:14:52.487Z,14.65
2023-03-06T18:17:19.020Z,14.15
2023-03-06T18:19:45.549Z,12.85
2023-03-06T18:22:12.068Z,13.30
2023-03-06T18:24:38.574Z,13.23
2023-03-06T18:27:05.187Z,13.13
2023-03-06T18:29:31.679Z,13.48
2023-03-06T18:31:59.278Z,13.23
2023-03-06T18:34:26.062Z,14.13
2023-03-06T18:36:52.977Z,12.65
2023-03-06T18:39:21.442Z,13.30
2023-03-06T18:41:48.330Z,13.17
2023-03-06T18:44:16.171Z,14.23
2023-03-06T18:46:43.332Z,15.18
2023-03-06T18:49:11.461Z,13.80
2023-03-06T18:51:38.238Z,15.75
2023-03-06T18:54:06.321Z,17.17
2023-03-06T18:56:33.361Z,14.30
2023-03-06T18:59:06.752Z,22.63
2023-03-06T19:01:33.818Z,15.57
2023-03-06T19:04:04.085Z,18.88
2023-03-06T19:06:30.948Z,17.77
2023-03-06T19:08:58.821Z,17.50
2023-03-06T19:11:26.883Z,17.13
2023-03-06T19:13:53.988Z,16.48
2023-03-06T19:16:23.590Z,17.10
2023-03-06T19:18:50.481Z,17.58
2023-03-06T19:21:21.825Z,17.65
2023-03-06T19:23:48.733Z,17.60
2023-03-06T19:26:16.264Z,17.15
2023-03-06T19:28:43.256Z,15.80
2023-03-06T19:31:19.571Z,17.48
2023-03-06T19:33:47.608Z,15.98
2023-03-06T19:36:15.066Z,15.50
2023-03-06T19:38:42.157Z,15.75
2023-03-06T19:41:13.362Z,15.15
2023-03-06T19:43:41.813Z,15.40
2023-03-06T19:46:14.721Z,16.07
2023-03-06T19:48:42.189Z,15.63
2023-03-06T19:51:09.797Z,14.20
2023-03-06T19:53:36.655Z,15.07
2023-03-06T19:56:08.731Z,15.65
2023-03-06T19:58:35.728Z,16.35
2023-03-06T20:01:10.707Z,16.25
2023-03-06T20:03:37.569Z,16.73
2023-03-06T20:06:08.961Z,17.83
2023-03-06T20:08:36.422Z,17.92
2023-03-06T20:11:03.168Z,18.85
2023-03-06T20:13:30.042Z,17.85
2023-03-06T20:15:57.871Z,17.10
2023-03-06T20:18:24.372Z,16.35
2023-03-06T20:21:01.129Z,15.95
2023-03-06T20:23:27.808Z,16.42
2023-03-06T20:25:54.713Z,16.45
2023-03-06T20:28:22.172Z,16.88
2023-03-06T20:30:49.177Z,16.27
2023-03-06T20:33:16.732Z,16.70
2023-03-06T20:35:43.826Z,15.63
2023-03-06T20:38:10.764Z,15.70
2023-03-06T20:40:38.887Z,16.52
2023-03-06T20:43:05.602Z,16.77
2023-03-06T20:45:32.792Z,16.40
2023-03-06T20:47:59.254Z,15.60
2023-03-06T20:50:26.231Z,15.85
2023-03-06T20:52:56.688Z,14.95
2023-03-06T20:55:23.197Z,15.23
2023-03-06T20:57:50.481Z,17.17
2023-03-06T21:00:18.653Z,15.85
2023-03-06T21:02:45.244Z,15.77
2023-03-06T21:05:11.728Z,15.32
2023-03-06T21:07:39.458Z,15.73
2023-03-06T21:10:06.787Z,16.48
2023-03-06T21:12:33.272Z,17.65
2023-03-06T21:14:59.869Z,15.98
2023-03-06T21:17:27.393Z,15.45
2023-03-06T21:19:53.835Z,16.63
2023-03-06T21:22:20.273Z,16.50
2023-03-06T21:24:46.768Z,16.40
2023-03-06T21:27:13.282Z,16.35
2023-03-06T21:29:39.775Z,16.15
2023-03-06T21:32:06.252Z,17.33
2023-03-06T21:34:33.229Z,17.67
2023-03-06T21:36:59.812Z,16.98
2023-03-06T21:39:26.246Z,18.25
2023-03-06T21:41:52.754Z,19.35
2023-03-06T21:44:19.644Z,17.88
2023-03-06T21:46:46.446Z,18.38
2023-03-06T21:49:12.906Z,18.00
2023-03-06T21:51:39.549Z,18.48
2023-03-06T21:54:06.599Z,18.00
2023-03-06T21:56:33.514Z,18.25
2023-03-06T21:59:00.153Z,20.05
2023-03-06T22:01:28.581Z,18.50
2023-03-06T22:03:55.408Z,19.73
2023-03-06T22:06:24.137Z,20.55
2023-03-06T22:08:51.110Z,20.65
2023-03-06T22:11:19.871Z,21.98
2023-03-06T22:13:47.943Z,20.63
2023-03-06T22:16:15.147Z,20.90
2023-03-06T22:18:46.045Z,20.67
2023-03-06T22:21:14.972Z,19.27
2023-03-06T22:23:41.717Z,19.80
2023-03-06T22:26:12.529Z,20.35
2023-03-06T22:28:39.852Z,20.33
2023-03-06T22:31:14.733Z,19.25
2023-03-06T22:33:41.392Z,18.80
2023-03-06T22:36:10.805Z,19.52
2023-03-06T22:38:39.857Z,18.83
2023-03-06T22:41:07.188Z,18.95
2023-03-06T22:43:34.638Z,18.75
2023-03-06T22:46:02.466Z,18.92
2023-03-06T22:48:29.183Z,17.80
2023-03-06T22:50:55.653Z,18.45
2023-03-06T22:53:22.098Z,18.55
2023-03-06T22:55:48.593Z,19.58
2023-03-06T22:58:15.317Z,20.05
2023-03-06T23:00:41.739Z,19.90
2023-03-06T23:03:08.296Z,20.48
2023-03-06T23:05:34.774Z,21.67
2023-03-06T23:08:01.198Z,21.42
2023-03-06T23:10:27.624Z,21.33
2023-03-06T23:13:13.453Z,21.55
2023-03-06T23:16:02.397Z,20.65
2023-03-06T23:18:47.401Z,20.52
2023-03-06T23:21:34.127Z,20.45
2023-03-06T23:24:19.430Z,20.83
2023-03-06T23:26:46.216Z,20.05
2023-03-06T23:29:12.915Z,20.75
2023-03-06T23:31:39.704Z,21.15
2023-03-06T23:34:06.244Z,20.55
2023-03-06T23:36:32.901Z,20.83
2023-03-06T23:38:59.357Z,19.92
2023-03-06T23:41:26.106Z,20.80
2023-03-06T23:43:55.056Z,20.85
2023-03-06T23:46:22.103Z,20.48
2023-03-06T23:48:48.554Z,20.55
2023-03-06T23:51:20.224Z,20.00
2023-03-06T23:53:47.956Z,19.15
2023-03-06T23:56:14.483Z,18.98
2023-03-06T23:58:41.139Z,20.25
